Language: 


Des rapports , des résumés tant et plus, au choix de chacun....


Données statistiques de la station
Quotidien Rapport Décembre 14, 2017 Unités:  Métrique    Anglais   les deux
« Précédent Jour
Suivant Jour »
Quotidien Hebdomadaire Mensuel Annuel Actuel
  Haut: Bas: Moyen:
Température: -17.8 °C -17.8 °C -15.6 °C
Pt de rosée: -17.8 °C -17.8 °C -16.1 °C
Humidité: Humidity % 0 % 89 %
Vitesse du vent: 0 km/h 0 km/h 22.2 km/h
Rafales: 0 km/h - -
Vent:- - WSW
Pression: 0 hPa 0 hPa -
Précipitation: 193.04 mm    
Historical Graphs
 
 
Données statistiques pour Décembre 14, 2017
Heure Température Point de rosée Pression Vent Vitesse du vent Refales Humidité Pluie (taux horaire)
-17.8 °C -17.8 °C 0 hPa Calm     Humidity % 0 mm
00:06 -14.9 °C -15.6 °C 33490.9 hPa WSW 35.2 km/h 43.5 km/h 94 % 0 mm
00:11 -14.8 °C -15 °C 33490.9 hPa WSW 84.6 km/h 89.8 km/h 95 % 0 mm
00:16 -14.8 °C -15 °C 33490.9 hPa WSW 61.3 km/h 89.8 km/h 97 % 25.4 mm
00:21 -14.8 °C -15 °C 33490.9 hPa WSW 39.9 km/h 70.6 km/h 97 % 25.4 mm
00:26 -14.8 °C -14.4 °C 33490.9 hPa WSW 34.1 km/h 59.5 km/h 98 % 33.02 mm
00:31 -14.8 °C -14.4 °C 33490.9 hPa WSW 32.3 km/h 52 km/h 98 % 33.02 mm
00:36 -14.9 °C -15 °C 33490.9 hPa WSW 52 km/h 53.9 km/h 98 % 33.02 mm
00:41 -14.9 °C -15 °C 33490.9 hPa SW 37.5 km/h 61.3 km/h 97 % 33.02 mm
00:46 -14.9 °C -15 °C 33490.9 hPa SW 39.9 km/h 61.3 km/h 97 % 33.02 mm
00:51 -14.9 °C -15 °C 33490.9 hPa SW 36.5 km/h 48.6 km/h 97 % 38.1 mm
00:56 -14.9 °C -15 °C 33453.7 hPa WSW 39.4 km/h 45.1 km/h 97 % 38.1 mm
01:01 -14.9 °C -15 °C 33453.7 hPa WSW 26.2 km/h 54.4 km/h 97 % 38.1 mm
01:06 -14.9 °C -15 °C 33453.7 hPa WSW 33.2 km/h 54.4 km/h 97 % 38.1 mm
01:11 -14.8 °C -15 °C 33490.9 hPa WSW 45.1 km/h 65 km/h 97 % 33.02 mm
01:16 -14.8 °C -14.4 °C 33490.9 hPa West 45.1 km/h 65 km/h 98 % 12.7 mm
01:21 -14.7 °C -14.4 °C 33490.9 hPa Calm   50.5 km/h 98 % 12.7 mm
01:26 -14.8 °C -15 °C 33490.9 hPa West 19.6 km/h 43.5 km/h 97 % 7.62 mm
01:32 -14.8 °C -14.4 °C 33490.9 hPa West 15.6 km/h 31.9 km/h 98 % 7.62 mm
01:37 -14.8 °C -15 °C 33490.9 hPa West 27.7 km/h 27.7 km/h 97 % 7.62 mm
01:42 -14.7 °C -14.4 °C 33524.8 hPa NNW 36 km/h 65 km/h 96 % 7.62 mm
01:47 -14.8 °C -15.6 °C 33524.8 hPa West 33.2 km/h 65 km/h 89 % 7.62 mm
01:52 -14.8 °C -16.1 °C 33524.8 hPa WSW 39.9 km/h 66 km/h 86 % 0 mm
01:57 -14.8 °C -16.1 °C 33558.6 hPa West 33.6 km/h 66 km/h 85 % 0 mm
02:02 -14.8 °C -16.1 °C 33558.6 hPa West 34.8 km/h 52.8 km/h 84 % 0 mm
02:07 -14.7 °C -16.1 °C 33558.6 hPa WNW 28.5 km/h 59.5 km/h 82 % 0 mm
02:12 -14.7 °C -16.1 °C 33558.6 hPa WNW 36.5 km/h 59.5 km/h 82 % 0 mm
02:17 -14.7 °C -16.1 °C 33558.6 hPa West 59.1 km/h 65 km/h 82 % 0 mm
02:22 -14.7 °C -16.1 °C 33558.6 hPa West 41.7 km/h 82.4 km/h 79 % 0 mm
02:27 -14.7 °C -16.7 °C 33558.6 hPa WSW 70.6 km/h 82.4 km/h 78 % 0 mm
02:32 -14.7 °C -16.7 °C 33558.6 hPa WNW 71.8 km/h 71.8 km/h 78 % 0 mm
02:37 -14.6 °C -16.7 °C 33558.6 hPa South 34.1 km/h 71.8 km/h 75 % 0 mm
02:42 -14.6 °C -16.7 °C 33558.6 hPa West 51 km/h 71.8 km/h 75 % 0 mm
02:47 -14.6 °C -16.7 °C 33558.6 hPa West 55.7 km/h 75.8 km/h 75 % 0 mm
02:52 -14.7 °C -16.7 °C 33558.6 hPa West 36.5 km/h 75.8 km/h 75 % 0 mm
02:57 -14.7 °C -16.7 °C 33592.5 hPa WSW 33.6 km/h 70.2 km/h 75 % 0 mm
03:03 -17.8 °C -16.7 °C 33592.5 hPa West 39.9 km/h 70.2 km/h 0 % 0 mm
03:08 -17.8 °C -16.7 °C 33592.5 hPa West 39.4 km/h 69.4 km/h 0 % 0 mm
03:13 -17.8 °C -16.7 °C 33626.4 hPa West 43 km/h 70.2 km/h 0 % 0 mm
03:18 -14.9 °C -17.2 °C 33626.4 hPa WSW 39.4 km/h 70.6 km/h 72 % 0 mm
03:23 -14.9 °C -17.2 °C 33626.4 hPa West 41.7 km/h 70.6 km/h 72 % 0 mm
03:28 -15 °C -17.2 °C 33626.4 hPa West 39.4 km/h 62.6 km/h 73 % 0 mm
03:33 -15 °C -17.2 °C 33626.4 hPa West 37 km/h 62.6 km/h 72 % 0 mm
03:38 -15.1 °C -17.8 °C 33626.4 hPa West 22 km/h 60.8 km/h 73 % 0 mm
03:43 -15.1 °C -17.8 °C 33626.4 hPa West 46.3 km/h 66.6 km/h 73 % 0 mm
03:48 -15.1 °C -17.8 °C 33626.4 hPa West 39.4 km/h 66.6 km/h 73 % 0 mm
03:53 -15.2 °C -17.2 °C 33626.4 hPa WSW 45.1 km/h 61.3 km/h 74 % 0 mm
03:58 -15.2 °C -17.2 °C 33626.4 hPa West 40.7 km/h 60.8 km/h 74 % 0 mm
04:03 -15.2 °C -17.8 °C 33626.4 hPa West 33.2 km/h 61.3 km/h 73 % 0 mm
04:08 -15.2 °C -17.2 °C 33626.4 hPa WSW 39.4 km/h 61.3 km/h 74 % 0 mm
04:14 -15.3 °C -17.2 °C 33626.4 hPa West 27.2 km/h 56.6 km/h 76 % 0 mm
04:20 -15.3 °C -17.2 °C 33626.4 hPa WSW 23.8 km/h 46.8 km/h 76 % 0 mm
04:21 -15.3 °C -17.2 °C 33626.4 hPa WSW 27.7 km/h 46.8 km/h 76 % 0 mm
04:22 -15.3 °C -17.2 °C 33626.4 hPa West 28.5 km/h 46.8 km/h 76 % 0 mm
04:23 -15.3 °C -17.2 °C 33626.4 hPa WSW 33.2 km/h 49.7 km/h 76 % 0 mm
04:26 -15.3 °C -17.2 °C 33660.2 hPa WSW 33.6 km/h 49.7 km/h 76 % 0 mm
04:28 -15.3 °C -17.2 °C 33660.2 hPa West 27.7 km/h 49.7 km/h 76 % 0 mm
04:31 -15.2 °C -17.2 °C 33660.2 hPa SSW 22 km/h 49.7 km/h 77 % 0 mm
04:36 -15.2 °C -17.2 °C 33660.2 hPa West 22.5 km/h 51 km/h 77 % 0 mm
04:41 -15.2 °C -17.2 °C 33660.2 hPa West 25.4 km/h 51 km/h 77 % 0 mm
04:46 -15.3 °C -17.2 °C 33660.2 hPa West 14.5 km/h 45.9 km/h 77 % 0 mm
04:51 -15.3 °C -17.2 °C 33660.2 hPa West 27.2 km/h 40.7 km/h 77 % 0 mm
04:52 -15.3 °C -17.2 °C 33660.2 hPa WSW 22 km/h 38.3 km/h 77 % 0 mm
04:56 -15.3 °C -17.2 °C 33660.2 hPa WSW 32.3 km/h 39.4 km/h 78 % 0 mm
05:00 -15.2 °C -17.2 °C 33660.2 hPa West 30.7 km/h 44.1 km/h 78 % 0 mm
05:05 -15.2 °C -17.2 °C 33660.2 hPa West 26.7 km/h 44.1 km/h 78 % 0 mm
05:10 -15.3 °C -17.2 °C 33660.2 hPa WSW 34.1 km/h 44.1 km/h 78 % 0 mm
05:15 -15.3 °C -17.2 °C 33660.2 hPa West 30.7 km/h 44.1 km/h 78 % 0 mm
05:20 -15.4 °C -17.2 °C 33660.2 hPa West 19.6 km/h 31.9 km/h 79 % 0 mm
05:26 -15.4 °C -17.2 °C 33660.2 hPa West 33.6 km/h 33.6 km/h 79 % 0 mm
05:31 -15.4 °C -17.2 °C 33660.2 hPa WSW 25.4 km/h 41.2 km/h 80 % 0 mm
05:36 -15.2 °C -16.7 °C 33660.2 hPa West 17.9 km/h 41.2 km/h 80 % 0 mm
05:41 -15.2 °C -16.7 °C 33660.2 hPa West 20.9 km/h 36.5 km/h 81 % 0 mm
05:44 -15.2 °C -16.7 °C 33660.2 hPa WSW 22.5 km/h 36.5 km/h 81 % 0 mm
05:49 -15.1 °C -16.7 °C 33660.2 hPa WSW 22.5 km/h 37 km/h 82 % 0 mm
05:54 -15.1 °C -16.7 °C 33660.2 hPa WSW 22.5 km/h 44.1 km/h 82 % 0 mm
05:59 -14.9 °C -16.7 °C 33660.2 hPa WSW 27.2 km/h 44.1 km/h 81 % 0 mm
06:04 -14.9 °C -16.7 °C 33660.2 hPa West 22.5 km/h 45.1 km/h 81 % 0 mm
06:08 -14.9 °C -16.7 °C 33660.2 hPa West 39.9 km/h 45.9 km/h 81 % 0 mm
06:09 -14.8 °C -16.1 °C 33660.2 hPa West 36.5 km/h 45.9 km/h 80 % 0 mm
06:10 -14.8 °C -16.1 °C 33660.2 hPa WSW 31.4 km/h 45.9 km/h 80 % 0 mm
06:14 -14.7 °C -16.1 °C 33660.2 hPa West 26.7 km/h 45.9 km/h 79 % 0 mm
06:19 -14.7 °C -16.1 °C 33660.2 hPa West 39.9 km/h 39.9 km/h 79 % 0 mm
06:20 -14.7 °C -16.1 °C 33660.2 hPa West 36.5 km/h 39.9 km/h 79 % 0 mm
06:24 -14.7 °C -16.1 °C 33660.2 hPa West 28.5 km/h 39.9 km/h 79 % 0 mm
06:25 -14.7 °C -16.1 °C 33660.2 hPa WSW 38.3 km/h 39.9 km/h 79 % 0 mm
06:30 -14.7 °C -16.1 °C 33660.2 hPa West 19.6 km/h 38.3 km/h 80 % 0 mm
06:35 -14.7 °C -16.1 °C 33660.2 hPa West 24.8 km/h 32.3 km/h 80 % 0 mm
06:40 -14.7 °C -16.1 °C 33660.2 hPa West 19.2 km/h 27.2 km/h 80 % 0 mm
06:45 -14.9 °C -16.1 °C 33660.2 hPa WSW 15.6 km/h 27.2 km/h 82 % 0 mm
06:50 -14.8 °C -16.1 °C 33660.2 hPa WSW 15.6 km/h 27.2 km/h 82 % 0 mm
06:55 -14.8 °C -16.1 °C 33660.2 hPa West 16.3 km/h 22 km/h 82 % 0 mm
07:00 -14.9 °C -16.1 °C 33626.4 hPa WSW 12.7 km/h 19.6 km/h 82 % 0 mm
07:05 -14.9 °C -16.1 °C 33626.4 hPa WSW 14 km/h 18.7 km/h 82 % 0 mm
07:10 -15 °C -16.1 °C 33626.4 hPa WSW 12.7 km/h 18.7 km/h 83 % 0 mm
07:15 -15.1 °C -16.7 °C 33660.2 hPa WSW 16.3 km/h 16.3 km/h 83 % 0 mm
07:21 -15.2 °C -16.7 °C 33660.2 hPa WSW 11.1 km/h 16.3 km/h 84 % 0 mm
07:26 -15.2 °C -16.7 °C 33626.4 hPa West 14.5 km/h 18.7 km/h 84 % 0 mm
07:31 -15.2 °C -16.1 °C 33626.4 hPa WSW 15.6 km/h 18.7 km/h 85 % 0 mm
07:36 -15.1 °C -16.1 °C 33626.4 hPa WSW 15.6 km/h 18.7 km/h 85 % 0 mm
07:41 -15 °C -16.1 °C 33660.2 hPa WSW 26.7 km/h 37 km/h 86 % 0 mm
07:46 -14.8 °C -16.1 °C 33660.2 hPa WSW 28.5 km/h 41.7 km/h 85 % 0 mm
07:56 -14.7 °C -16.1 °C 33660.2 hPa WSW 20.3 km/h 33.6 km/h 83 % 0 mm
08:01 -14.6 °C -16.1 °C 33660.2 hPa West 27.2 km/h 29.5 km/h 83 % 0 mm
08:06 -14.6 °C -16.1 °C 33660.2 hPa WSW 19.2 km/h 27.2 km/h 83 % 0 mm
08:11 -14.6 °C -16.1 °C 33660.2 hPa West 14.5 km/h 27.2 km/h 83 % 0 mm
08:13 -14.6 °C -16.1 °C 33660.2 hPa WSW 20.9 km/h 31.4 km/h 83 % 0 mm
08:16 -14.7 °C -16.1 °C 33660.2 hPa West 27.2 km/h 43 km/h 82 % 0 mm
08:17 -14.7 °C -16.1 °C 33660.2 hPa West 27.2 km/h 43 km/h 82 % 0 mm
08:21 -14.6 °C -16.1 °C 33660.2 hPa WSW 22 km/h 43 km/h 82 % 0 mm
08:26 -14.7 °C -16.1 °C 33660.2 hPa SW 14.5 km/h 26.7 km/h 82 % 0 mm
08:31 -14.7 °C -16.1 °C 33660.2 hPa WSW 19.6 km/h 23.8 km/h 82 % 0 mm
08:36 -14.7 °C -16.1 °C 33660.2 hPa WSW 45.1 km/h 45.1 km/h 82 % 0 mm
08:42 -14.7 °C -16.1 °C 33660.2 hPa West 9.8 km/h 45.1 km/h 82 % 0 mm
08:47 -14.9 °C -16.1 °C 33660.2 hPa WSW 27.7 km/h 52.8 km/h 86 % 0 mm
08:52 -14.9 °C -16.1 °C 33660.2 hPa WSW 16.3 km/h 52.8 km/h 86 % 7.62 mm
08:55 -15 °C -16.1 °C 33660.2 hPa WSW 26.2 km/h 52.8 km/h 86 % 7.62 mm
09:01 -15.1 °C -16.1 °C 33660.2 hPa WSW 20.9 km/h 26.2 km/h 87 % 7.62 mm
09:02 -15.1 °C -16.1 °C 33660.2 hPa WSW 20.9 km/h 26.2 km/h 87 % 7.62 mm
09:07 -15.1 °C -16.1 °C 33660.2 hPa WSW 22 km/h 26.7 km/h 87 % 7.62 mm
09:12 -17.8 °C -16.1 °C 33660.2 hPa SW 28.5 km/h 28.5 km/h 0 % 7.62 mm
09:17 -15.2 °C -16.1 °C 33660.2 hPa SW 25.4 km/h 39.4 km/h 91 % 7.62 mm
09:22 -15.2 °C -16.1 °C 33660.2 hPa SSW 19.6 km/h 39.4 km/h 91 % 7.62 mm
09:27 -15.1 °C -16.1 °C 33660.2 hPa SW 18.7 km/h 33.2 km/h 92 % 7.62 mm
09:32 -15.2 °C -16.1 °C 33660.2 hPa SSW 19.6 km/h 33.2 km/h 92 % 7.62 mm
09:37 -15.2 °C -16.1 °C 33660.2 hPa SW 24.8 km/h 28.5 km/h 92 % 7.62 mm
09:39 -15.2 °C -16.1 °C 33660.2 hPa WSW 16.9 km/h 28.5 km/h 92 % 7.62 mm
09:42 -15.2 °C -16.1 °C 33660.2 hPa SSW 28.5 km/h 28.5 km/h 92 % 7.62 mm
09:47 -15.2 °C -16.1 °C 33660.2 hPa SSW 45.1 km/h 45.1 km/h 92 % 0 mm
09:48 -15.2 °C -16.1 °C 33660.2 hPa SSW 32.3 km/h 45.1 km/h 92 % 0 mm
09:52 -15.2 °C -16.1 °C 33660.2 hPa WSW 39.9 km/h 45.1 km/h 92 % 0 mm
09:57 -15.2 °C -15.6 °C 33660.2 hPa WSW 20.3 km/h 39.9 km/h 93 % 0 mm
10:02 -15.3 °C -15.6 °C 33660.2 hPa SW 20.9 km/h 45.1 km/h 93 % 0 mm
10:07 -15.3 °C -15.6 °C 33660.2 hPa SW 16.9 km/h 45.1 km/h 93 % 0 mm
10:12 -15.4 °C -16.1 °C 33660.2 hPa WSW 19.2 km/h 39.4 km/h 93 % 0 mm
10:17 -15.4 °C -16.1 °C 33660.2 hPa WSW 20.9 km/h 33.6 km/h 93 % 0 mm
10:19 -15.4 °C -16.1 °C 33660.2 hPa SSW 20.3 km/h 33.6 km/h 93 % 0 mm
10:22 -15.4 °C -16.1 °C 33660.2 hPa SSW 19.6 km/h 29 km/h 93 % 0 mm
10:27 -15.5 °C -16.1 °C 33660.2 hPa WSW 19.2 km/h 24.8 km/h 93 % 0 mm
10:32 -15.5 °C -16.1 °C 33660.2 hPa SW 17.4 km/h 27.7 km/h 93 % 0 mm
10:37 -15.5 °C -16.1 °C 33660.2 hPa SSW 16.9 km/h 27.7 km/h 93 % 0 mm
10:42 -15.5 °C -16.1 °C 33694.1 hPa WSW 16.9 km/h 27.2 km/h 93 % 0 mm
10:47 -15.5 °C -16.1 °C 33694.1 hPa SW 18.7 km/h 27.2 km/h 95 % 0 mm
10:52 -15.5 °C -16.1 °C 33694.1 hPa SW 22.5 km/h 31.4 km/h 95 % 0 mm
10:57 -15.5 °C -16.1 °C 33660.2 hPa WSW 20.3 km/h 31.4 km/h 95 % 0 mm
10:59 -15.4 °C -15.6 °C 33660.2 hPa SSW 22 km/h 31.4 km/h 96 % 0 mm
11:02 -15.4 °C -15.6 °C 33660.2 hPa WSW 32.3 km/h 36 km/h 96 % 0 mm
11:07 -15.4 °C -15.6 °C 33660.2 hPa WSW 15 km/h 36 km/h 96 % 0 mm
11:12 -15.4 °C -15.6 °C 33660.2 hPa SW 20.9 km/h 31.4 km/h 96 % 0 mm
11:17 -15.3 °C -15.6 °C 33660.2 hPa SW 19.2 km/h 29 km/h 96 % 0 mm
11:22 -15.3 °C -15.6 °C 33660.2 hPa SSW 23.8 km/h 26.2 km/h 96 % 0 mm
11:24 -15.3 °C -15.6 °C 33660.2 hPa SSW 16.9 km/h 25.4 km/h 96 % 0 mm
11:29 -15.3 °C -15.6 °C 33660.2 hPa WSW 22.5 km/h 29.5 km/h 96 % 0 mm
11:34 -15.3 °C -15.6 °C 33660.2 hPa WSW 31.9 km/h 31.9 km/h 96 % 0 mm
11:38 -15.3 °C -15.6 °C 33660.2 hPa SSW 22.5 km/h 33.6 km/h 96 % 0 mm
11:40 -15.3 °C -15.6 °C 33660.2 hPa WSW 23.8 km/h 33.6 km/h 96 % 0 mm
11:45 -15.3 °C -15.6 °C 33660.2 hPa SW 26.7 km/h 33.6 km/h 96 % 0 mm
11:50 -15.3 °C -15.6 °C 33660.2 hPa SSW 26.2 km/h 39.9 km/h 96 % 0 mm
11:55 -15.2 °C -15.6 °C 33660.2 hPa SSW 17.9 km/h 39.9 km/h 95 % 0 mm
12:01 -15.2 °C -15.6 °C 33660.2 hPa WSW 22 km/h 35.2 km/h 95 % 0 mm
12:03 -15.2 °C -15.6 °C 33660.2 hPa SW 28.5 km/h 39.9 km/h 95 % 0 mm
12:04 -15.2 °C -15.6 °C 33660.2 hPa SW 19.6 km/h 39.9 km/h 95 % 0 mm
12:08 -15.2 °C -15.6 °C 33660.2 hPa SSW 22 km/h 39.9 km/h 95 % 0 mm
12:13 -15.2 °C -15.6 °C 33660.2 hPa SSW 26.7 km/h 32.3 km/h 95 % 0 mm
12:18 -15.2 °C -15.6 °C 33660.2 hPa SW 24.3 km/h 32.3 km/h 95 % 0 mm
12:23 -15.2 °C -15.6 °C 33660.2 hPa WSW 29 km/h 35.2 km/h 95 % 0 mm
12:26 -15.2 °C -15.6 °C 33626.4 hPa SW 19.2 km/h 35.2 km/h 95 % 0 mm
12:31 -15.2 °C -15.6 °C 33626.4 hPa WSW 16.9 km/h 35.2 km/h 95 % 0 mm
12:36 -15.2 °C -15.6 °C 33626.4 hPa WSW 22 km/h 28.5 km/h 95 % 0 mm
12:40 -15.2 °C -15.6 °C 33626.4 hPa West 15.6 km/h 27.2 km/h 95 % 0 mm
12:43 -15.2 °C -15.6 °C 33626.4 hPa SSW 12.7 km/h 27.2 km/h 95 % 0 mm
12:48 -15.2 °C -15.6 °C 33626.4 hPa SW 19.6 km/h 27.2 km/h 95 % 0 mm
12:53 -15.2 °C -15.6 °C 33626.4 hPa WSW 20.9 km/h 28.5 km/h 95 % 0 mm
12:58 -15.2 °C -15.6 °C 33626.4 hPa SW 20.9 km/h 39.9 km/h 95 % 0 mm
13:03 -15.1 °C -15.6 °C 33626.4 hPa SW 20.3 km/h 39.9 km/h 95 % 0 mm
13:08 -15.1 °C -15.6 °C 33626.4 hPa SW 26.2 km/h 37.5 km/h 95 % 0 mm
13:09 -15.1 °C -15.6 °C 33626.4 hPa SSW 20.9 km/h 37.5 km/h 95 % 0 mm
13:14 -15.1 °C -15.6 °C 33592.5 hPa SSW 22 km/h 32.3 km/h 95 % 0 mm
13:19 -15.1 °C -15.6 °C 33592.5 hPa WSW 24.8 km/h 32.3 km/h 95 % 0 mm
13:24 -15.1 °C -15.6 °C 33592.5 hPa WSW 18.7 km/h 31.4 km/h 95 % 0 mm
13:29 -17.8 °C -15.6 °C 33626.4 hPa SW 22 km/h 29 km/h 0 % 0 mm
13:34 -17.8 °C -15.6 °C 33626.4 hPa WSW 20.9 km/h 33.2 km/h 0 % 0 mm
13:39 -17.8 °C -15.6 °C 0 hPa SW 16.9 km/h 16.9 km/h 0 % 0 mm
13:44 -15.1 °C -15.6 °C 33626.4 hPa WSW 38.3 km/h 44.6 km/h 94 % 0 mm
13:49 -15 °C -15.6 °C 33626.4 hPa WSW 30.7 km/h 44.6 km/h 94 % 0 mm
13:54 -15 °C -15 °C 33626.4 hPa WSW 23 km/h 41.2 km/h 95 % 0 mm
13:59 -15 °C -15 °C 33592.5 hPa SSW 26.7 km/h 41.2 km/h 95 % 0 mm
14:03 -14.9 °C -15 °C 33592.5 hPa WSW 27.2 km/h 34.1 km/h 95 % 0 mm
14:04 -14.9 °C -15 °C 33592.5 hPa WSW 32.3 km/h 37 km/h 95 % 0 mm
14:09 -14.9 °C -15 °C 33592.5 hPa WSW 38.3 km/h 46.8 km/h 95 % 0 mm
14:14 -14.9 °C -15 °C 33592.5 hPa SW 33.6 km/h 49.2 km/h 95 % 7.62 mm
14:19 -14.9 °C -15 °C 33592.5 hPa SW 22.5 km/h 49.2 km/h 95 % 7.62 mm
14:24 -14.9 °C -15 °C 33592.5 hPa SW 16.9 km/h 41.7 km/h 95 % 7.62 mm
14:29 -14.9 °C -15 °C 33592.5 hPa SSW 39.9 km/h 39.9 km/h 95 % 7.62 mm
14:30 -14.9 °C -15 °C 33592.5 hPa SW 26.2 km/h 39.9 km/h 95 % 7.62 mm
14:35 -15 °C -15 °C 33592.5 hPa WSW 27.2 km/h 44.6 km/h 96 % 7.62 mm
14:40 -15 °C -15 °C 33592.5 hPa WSW 20.9 km/h 44.6 km/h 96 % 12.7 mm
14:45 -15 °C -15 °C 33592.5 hPa SW 24.8 km/h 38.3 km/h 96 % 12.7 mm
14:50 -15 °C -15 °C 33592.5 hPa SW 26.2 km/h 36.5 km/h 96 % 12.7 mm
14:52 -15 °C -15 °C 33592.5 hPa SSW 15 km/h 36.5 km/h 96 % 12.7 mm
14:57 -15.1 °C -15.6 °C 33558.6 hPa SW 15.6 km/h 36.5 km/h 97 % 12.7 mm
15:02 -15.1 °C -15.6 °C 33558.6 hPa SSW 20.3 km/h 33.6 km/h 97 % 12.7 mm
15:07 -15.1 °C -15.6 °C 33558.6 hPa SW 20.3 km/h 27.2 km/h 97 % 12.7 mm
15:12 -15.1 °C -15.6 °C 33558.6 hPa SW 14 km/h 26.7 km/h 97 % 12.7 mm
15:17 -15.1 °C -15.6 °C 33558.6 hPa SSW 16.9 km/h 26.7 km/h 97 % 7.62 mm
15:22 -15.1 °C -15 °C 33558.6 hPa SW 19.6 km/h 27.2 km/h 98 % 7.62 mm
15:27 -15.1 °C -15 °C 33558.6 hPa SW 20.9 km/h 32.3 km/h 98 % 7.62 mm
15:32 -15.1 °C -15 °C 33558.6 hPa SSW 27.2 km/h 33.6 km/h 98 % 12.7 mm
15:37 -15.1 °C -15 °C 33558.6 hPa SSW 31.4 km/h 33.6 km/h 98 % 33.02 mm
15:43 -15.1 °C -15 °C 33524.8 hPa SW 19.6 km/h 33.6 km/h 98 % 20.32 mm
15:48 -15.1 °C -15 °C 33524.8 hPa WSW 22.5 km/h 31.9 km/h 98 % 20.32 mm
15:53 -15.2 °C -15 °C 33524.8 hPa SW 25.4 km/h 31.4 km/h 98 % 20.32 mm
15:58 -15.2 °C -15 °C 33524.8 hPa SSW 22 km/h 33.2 km/h 98 % 20.32 mm
16:03 -15.2 °C -15 °C 33524.8 hPa SW 30.7 km/h 33.2 km/h 98 % 20.32 mm
16:04 -15.3 °C -15.6 °C 33524.8 hPa SW 28.5 km/h 34.1 km/h 98 % 20.32 mm
16:05 -15.3 °C -15.6 °C 33524.8 hPa SSW 22 km/h 34.1 km/h 98 % 20.32 mm
16:10 -15.4 °C -15.6 °C 33558.6 hPa SSW 31.4 km/h 38.3 km/h 98 % 20.32 mm
16:15 -15.4 °C -15.6 °C 33558.6 hPa WSW 31.9 km/h 39.9 km/h 98 % 20.32 mm
16:19 -15.4 °C -15.6 °C 33558.6 hPa SSW 20.3 km/h 50.5 km/h 98 % 20.32 mm
16:21 -15.4 °C -15.6 °C 33558.6 hPa South 22 km/h 50.5 km/h 98 % 20.32 mm
16:26 -15.6 °C -15.6 °C 33558.6 hPa SW 19.2 km/h 34.1 km/h 98 % 20.32 mm
16:31 -15.6 °C -15.6 °C 33558.6 hPa SW 19.6 km/h 31.4 km/h 98 % 12.7 mm
16:36 -15.6 °C -15.6 °C 33558.6 hPa SW 25.4 km/h 38.3 km/h 98 % 7.62 mm
16:41 -15.6 °C -15.6 °C 33558.6 hPa WSW 26.2 km/h 38.3 km/h 98 % 0 mm
16:46 -15.6 °C -15.6 °C 33558.6 hPa SSW 27.2 km/h 31.9 km/h 98 % 0 mm
16:51 -15.6 °C -15.6 °C 33558.6 hPa SW 22.5 km/h 34.8 km/h 98 % 0 mm
16:56 -15.6 °C -15.6 °C 33524.8 hPa SSW 20.3 km/h 34.8 km/h 98 % 0 mm
17:01 -15.6 °C -15.6 °C 33524.8 hPa SW 16.9 km/h 34.1 km/h 98 % 0 mm
17:06 -15.6 °C -15.6 °C 33524.8 hPa SSW 26.7 km/h 39.9 km/h 98 % 0 mm
17:09 -15.6 °C -15.6 °C 33524.8 hPa WSW 20.3 km/h 39.9 km/h 98 % 0 mm
17:12 -15.6 °C -15.6 °C 33524.8 hPa SW 31.9 km/h 39.9 km/h 98 % 0 mm
17:17 -15.6 °C -15.6 °C 33524.8 hPa WSW 28.5 km/h 36.5 km/h 98 % 7.62 mm
17:22 -15.5 °C -15.6 °C 33524.8 hPa WSW 33.2 km/h 39.4 km/h 98 % 25.4 mm
17:27 -15.7 °C -15.6 °C 33558.6 hPa West 27.7 km/h 39.9 km/h 98 % 38.1 mm
17:32 -15.8 °C -15.6 °C 33558.6 hPa WSW 27.2 km/h 45.1 km/h 98 % 58.42 mm
17:33 -15.9 °C -16.1 °C 33558.6 hPa West 26.7 km/h 45.1 km/h 98 % 63.5 mm
17:37 -15.9 °C -16.1 °C 33558.6 hPa WSW 20.9 km/h 45.1 km/h 98 % 71.12 mm
17:42 -15.9 °C -16.1 °C 33524.8 hPa SSW 14.5 km/h 38.3 km/h 98 % 96.52 mm
17:47 -16.1 °C -16.1 °C 33524.8 hPa SW 10.3 km/h 32.3 km/h 98 % 104.14 mm
17:52 -16.1 °C -16.1 °C 33524.8 hPa South 12.2 km/h 22.5 km/h 98 % 104.14 mm
17:57 -16.2 °C -16.1 °C 33490.9 hPa SSW 8 km/h 19.6 km/h 98 % 104.14 mm
18:00 -16.2 °C -16.1 °C 33490.9 hPa SSW 11.1 km/h 18.7 km/h 98 % 104.14 mm
18:05 -16.2 °C -16.1 °C 33490.9 hPa South 12.7 km/h 18.7 km/h 98 % 104.14 mm
18:10 -16.3 °C -16.1 °C 33490.9 hPa SSW 9.8 km/h 19.2 km/h 98 % 104.14 mm
18:15 -16.3 °C -16.1 °C 33490.9 hPa SSW 9.8 km/h 19.2 km/h 98 % 96.52 mm
18:20 -16.3 °C -16.1 °C 33490.9 hPa SSW 15.6 km/h 20.3 km/h 98 % 83.82 mm
18:22 -16.3 °C -16.1 °C 33490.9 hPa SW 20.3 km/h 20.3 km/h 98 % 76.2 mm
18:27 -16.3 °C -16.1 °C 33524.8 hPa Calm   20.3 km/h 98 % 63.5 mm
18:28 -16.3 °C -16.1 °C 33524.8 hPa Calm   20.3 km/h 98 % 63.5 mm
18:32 -16.3 °C -16.1 °C 33524.8 hPa SSW 18.7 km/h 19.2 km/h 98 % 45.72 mm
18:37 -16.3 °C -16.1 °C 33524.8 hPa SSW 16.9 km/h 22.5 km/h 98 % 33.02 mm
18:38 -16.3 °C -16.1 °C 33524.8 hPa SSW 16.3 km/h 22.5 km/h 98 % 33.02 mm
18:43 -16.3 °C -16.1 °C 33490.9 hPa SSW 9.3 km/h 22.5 km/h 98 % 7.62 mm
18:48 -16.4 °C -16.1 °C 33490.9 hPa SSW 9.8 km/h 22.5 km/h 98 % 0 mm
18:53 -16.4 °C -16.1 °C 33490.9 hPa South 14.5 km/h 22.5 km/h 98 % 7.62 mm
18:58 -16.4 °C -16.1 °C 33524.8 hPa SSW 15 km/h 22.5 km/h 98 % 7.62 mm
19:03 -16.4 °C -16.1 °C 33524.8 hPa SSW 11.1 km/h 22.5 km/h 98 % 7.62 mm
19:08 -16.3 °C -16.1 °C 33524.8 hPa South 12.7 km/h 22.5 km/h 98 % 7.62 mm
19:13 -16.3 °C -16.1 °C 33524.8 hPa South 19.2 km/h 22.5 km/h 98 % 7.62 mm
19:14 -16.3 °C -16.1 °C 33524.8 hPa SSW 20.3 km/h 22.5 km/h 98 % 7.62 mm
19:18 -16.3 °C -16.1 °C 33524.8 hPa SSW 16.3 km/h 26.2 km/h 98 % 7.62 mm
19:20 -16.3 °C -16.1 °C 33524.8 hPa SW 20.3 km/h 26.2 km/h 98 % 7.62 mm
19:25 -16.2 °C -16.1 °C 33524.8 hPa SSW 16.3 km/h 26.2 km/h 98 % 7.62 mm
19:26 -16.2 °C -16.1 °C 33490.9 hPa SSW 14 km/h 22.5 km/h 98 % 7.62 mm
19:31 -16.2 °C -16.1 °C 33490.9 hPa SW 15 km/h 20.3 km/h 98 % 7.62 mm
19:36 -16.2 °C -16.1 °C 33490.9 hPa WSW 17.4 km/h 20.3 km/h 98 % 7.62 mm
19:41 -16.1 °C -16.1 °C 33524.8 hPa SW 12.2 km/h 26.2 km/h 98 % 7.62 mm
19:46 -16.1 °C -16.1 °C 33524.8 hPa SW 19.2 km/h 27.7 km/h 98 % 7.62 mm
19:51 -16.1 °C -16.1 °C 33524.8 hPa SSW 15 km/h 27.7 km/h 98 % 7.62 mm
19:53 -16.1 °C -16.1 °C 33524.8 hPa SSW 16.9 km/h 27.7 km/h 98 % 0 mm
19:58 -16.2 °C -16.1 °C 33490.9 hPa SW 19.2 km/h 22 km/h 98 % 0 mm
20:03 -16.2 °C -16.1 °C 33490.9 hPa SW 10.3 km/h 22.5 km/h 98 % 0 mm
20:08 -16.2 °C -16.1 °C 33490.9 hPa SW 14.5 km/h 22.5 km/h 98 % 0 mm
20:13 -16.2 °C -16.1 °C 33490.9 hPa SSW 16.3 km/h 20.3 km/h 98 % 0 mm
20:18 -16.2 °C -16.1 °C 33490.9 hPa South 8 km/h 22 km/h 98 % 0 mm
20:19 -16.2 °C -16.1 °C 33490.9 hPa SW 14 km/h 22 km/h 98 % 0 mm
20:23 -16.2 °C -16.1 °C 33490.9 hPa SSW 10.3 km/h 22 km/h 98 % 0 mm
20:25 -16.2 °C -16.1 °C 33490.9 hPa SSW 12.7 km/h 20.3 km/h 98 % 0 mm
20:28 -16.2 °C -16.1 °C 33490.9 hPa SSW 20.3 km/h 22 km/h 98 % 0 mm
20:33 -16.2 °C -16.1 °C 33490.9 hPa SSW 25.4 km/h 33.6 km/h 98 % 0 mm
20:38 -16.2 °C -16.1 °C 33490.9 hPa SSW 33.6 km/h 33.6 km/h 98 % 0 mm
20:43 -16.2 °C -16.1 °C 33490.9 hPa WSW 19.2 km/h 33.6 km/h 98 % 0 mm
20:48 -16.2 °C -16.1 °C 33490.9 hPa SSW 15.6 km/h 33.6 km/h 98 % 0 mm
20:53 -16.3 °C -16.1 °C 33490.9 hPa SW 16.3 km/h 24.8 km/h 98 % 0 mm
20:58 -16.3 °C -16.1 °C 33490.9 hPa SW 16.9 km/h 22.5 km/h 98 % 0 mm
21:03 -16.3 °C -16.1 °C 33490.9 hPa SSW 8 km/h 20.3 km/h 98 % 0 mm
21:08 -16.4 °C -16.1 °C 33490.9 hPa SW 10.3 km/h 22.5 km/h 98 % 0 mm
21:13 -16.4 °C -16.1 °C 33490.9 hPa Calm   22.5 km/h 98 % 0 mm
21:18 -16.4 °C -16.1 °C 33490.9 hPa SW 3.4 km/h 16.3 km/h 98 % 0 mm
21:23 -16.5 °C -16.1 °C 33490.9 hPa SSW 6.4 km/h 15.6 km/h 98 % 0 mm
21:28 -16.5 °C -16.1 °C 33490.9 hPa Calm   12.7 km/h 98 % 0 mm
21:34 -16.6 °C -16.7 °C 33490.9 hPa Calm   10.3 km/h 98 % 0 mm
21:39 -16.6 °C -16.7 °C 33490.9 hPa Calm   10.3 km/h 98 % 0 mm
21:44 -16.6 °C -16.7 °C 33490.9 hPa Calm   9.3 km/h 98 % 0 mm
21:49 -16.7 °C -16.7 °C 33490.9 hPa SW 8 km/h 9.3 km/h 98 % 0 mm
21:54 -16.7 °C -16.7 °C 33490.9 hPa Calm   8 km/h 98 % 0 mm
21:59 -16.7 °C -16.7 °C 33490.9 hPa Calm   7.6 km/h 98 % 0 mm
22:04 -16.7 °C -16.7 °C 33490.9 hPa Calm   6.9 km/h 98 % 0 mm
22:09 -16.7 °C -16.7 °C 33490.9 hPa WSW 7.6 km/h 10.3 km/h 98 % 0 mm
22:10 -16.7 °C -16.7 °C 33490.9 hPa WSW 6.9 km/h 10.3 km/h 98 % 0 mm
22:15 -16.8 °C -16.7 °C 33490.9 hPa Calm   10.3 km/h 98 % 0 mm
22:20 -16.8 °C -16.7 °C 33490.9 hPa Calm   9.8 km/h 98 % 0 mm
22:22 -16.9 °C -16.7 °C 33490.9 hPa Calm   10.3 km/h 98 % 0 mm
22:25 -16.9 °C -16.7 °C 33490.9 hPa West 10.3 km/h 10.3 km/h 98 % 0 mm
22:30 -17 °C -17.2 °C 33490.9 hPa Calm   11.1 km/h 98 % 0 mm
22:35 -17.1 °C -17.2 °C 33490.9 hPa Calm   11.1 km/h 98 % 0 mm
22:40 -17.2 °C -17.2 °C 33490.9 hPa Calm     98 % 0 mm
22:45 -17.2 °C -17.2 °C 33490.9 hPa Calm     98 % 0 mm
22:48 -17.2 °C -17.2 °C 33490.9 hPa Calm     98 % 0 mm
22:53 -17.2 °C -17.2 °C 33490.9 hPa Calm     98 % 0 mm
22:58 -17.2 °C -17.2 °C 33524.8 hPa Calm     98 % 0 mm
23:03 -17.2 °C -17.2 °C 33524.8 hPa South 2.3 km/h 2.9 km/h 98 % 0 mm
23:09 -17.2 °C -17.2 °C 33524.8 hPa Calm   8 km/h 98 % 0 mm
23:14 -17.2 °C -17.2 °C 33490.9 hPa SW 5.1 km/h 8 km/h 98 % 0 mm
23:19 -17.2 °C -17.2 °C 33490.9 hPa Calm   8 km/h 98 % 0 mm
23:24 -17.2 °C -17.2 °C 33490.9 hPa Calm     98 % 0 mm
23:29 -17.2 °C -17.2 °C 33490.9 hPa Calm     98 % 0 mm
23:34 -17.2 °C -17.2 °C 33490.9 hPa Calm   2.9 km/h 98 % 0 mm
23:39 -17.2 °C -17.2 °C 33490.9 hPa Calm   2.9 km/h 98 % 0 mm
23:44 -17.2 °C -17.2 °C 33490.9 hPa Calm     98 % 0 mm
23:49 -17.2 °C -17.2 °C 33490.9 hPa Calm     98 % 0 mm
23:54 -17.2 °C -17.2 °C 33490.9 hPa SSW 5.6 km/h 6.9 km/h 98 % 0 mm
23:59 -17.2 °C -17.2 °C 33490.9 hPa SSW 5.1 km/h 8 km/h 98 % 0 mm
Le Gheer Warneton
Courtoisie de Weather Underground - 2.5 mb

Mise a jour : 24/02/2018 01:05:11
Généré par Cumulus 1.9.4 (1099)